Time;durP1;ratioP1;P1;durP2;ratioP2;P2;SDS_P1;SDS_P2;PMS_P1;PMS_P2;Temp;Humidity;BMP_temperature;BMP_pressure;BME280_temperature;BME280_humidity;BME280_pressure;Samples;Min_cycle;Max_cycle;Signal;HPM_P1;HPM_P2
2021/05/15 00:00:38;;;;;;;1.20;1.10;;;9.80;99.90;;;;;;6265018;22;20988;-92
2021/05/15 00:03:05;;;;;;;1.47;1.10;;;9.80;99.90;;;;;;6265794;22;20787;-90
2021/05/15 00:05:30;;;;;;;1.30;1.20;;;9.80;99.90;;;;;;6266185;22;20399;-90
2021/05/15 00:07:59;;;;;;;1.70;1.60;;;9.90;99.90;;;;;;6263304;22;20414;-91
2021/05/15 00:10:25;;;;;;;1.00;1.00;;;9.80;99.90;;;;;;6264457;22;20396;-90
2021/05/15 00:12:51;;;;;;;1.63;1.37;;;9.80;99.90;;;;;;6265314;22;20404;-90
2021/05/15 00:15:17;;;;;;;1.30;1.03;;;9.80;99.90;;;;;;6266381;22;20954;-89
2021/05/15 00:17:44;;;;;;;1.40;1.30;;;9.90;99.90;;;;;;6265758;22;20169;-90
2021/05/15 00:20:15;;;;;;;1.50;1.40;;;9.90;99.90;;;;;;6265618;22;20437;-90
2021/05/15 00:22:44;;;;;;;2.03;1.40;;;9.80;99.90;;;;;;6265628;22;20750;-90
2021/05/15 00:25:12;;;;;;;1.30;1.20;;;9.80;99.90;;;;;;6265702;22;20392;-90
2021/05/15 00:27:37;;;;;;;1.50;1.40;;;9.80;99.90;;;;;;6266831;22;20465;-91
2021/05/15 00:30:06;;;;;;;1.33;1.10;;;9.90;99.90;;;;;;6266142;22;20400;-90
2021/05/15 00:32:33;;;;;;;2.63;1.23;;;9.90;99.90;;;;;;6267282;22;20191;-90
2021/05/15 00:34:58;;;;;;;2.27;1.30;;;9.90;99.90;;;;;;6265583;22;20387;-89
2021/05/15 00:37:25;;;;;;;4.00;1.50;;;9.90;99.90;;;;;;6267504;22;20467;-89
2021/05/15 00:39:52;;;;;;;1.07;1.07;;;9.80;99.90;;;;;;6267519;22;20889;-89
2021/05/15 00:42:18;;;;;;;1.70;1.60;;;9.80;99.90;;;;;;6264979;22;20449;-88
2021/05/15 00:44:44;;;;;;;1.47;1.47;;;9.80;99.90;;;;;;6265541;22;20164;-88
2021/05/15 00:47:21;;;;;;;1.87;1.77;;;9.80;99.90;;;;;;6266038;22;20155;-89
2021/05/15 00:49:51;;;;;;;1.70;1.60;;;9.70;99.90;;;;;;6266982;22;20395;-88
2021/05/15 00:52:27;;;;;;;2.27;1.80;;;9.70;99.90;;;;;;6265234;22;20466;-89
2021/05/15 00:54:58;;;;;;;2.33;2.10;;;9.60;99.90;;;;;;6265403;22;20396;-89
2021/05/15 00:57:28;;;;;;;1.80;1.70;;;9.60;99.90;;;;;;6265989;22;20378;-90
2021/05/15 00:59:54;;;;;;;1.90;1.80;;;9.60;99.90;;;;;;6266169;22;20396;-89
2021/05/15 01:02:20;;;;;;;2.70;2.33;;;9.50;99.90;;;;;;6263671;22;20648;-89
2021/05/15 01:04:46;;;;;;;2.80;2.60;;;9.40;99.90;;;;;;6265595;22;20157;-89
2021/05/15 01:07:13;;;;;;;2.83;2.63;;;9.40;99.90;;;;;;6265507;22;20331;-90
2021/05/15 01:09:39;;;;;;;4.07;3.20;;;9.30;99.90;;;;;;6264702;22;20167;-90
2021/05/15 01:12:07;;;;;;;3.57;3.27;;;9.30;99.90;;;;;;6240081;22;20388;-89
2021/05/15 01:14:37;;;;;;;2.40;2.23;;;9.20;99.90;;;;;;6263702;22;20165;-89
2021/05/15 01:17:03;;;;;;;1.83;1.73;;;9.20;99.90;;;;;;6266475;22;20384;-89
2021/05/15 01:19:29;;;;;;;1.70;1.60;;;9.20;99.90;;;;;;6265130;22;20399;-92
2021/05/15 01:21:55;;;;;;;1.50;1.40;;;9.10;99.90;;;;;;6265670;22;20434;-91
2021/05/15 01:24:21;;;;;;;1.93;1.73;;;9.00;99.90;;;;;;6265180;22;20602;-91
2021/05/15 01:29:18;;;;;;;1.70;1.60;;;9.00;99.90;;;;;;6265830;22;20917;-90
2021/05/15 01:31:44;;;;;;;1.73;1.63;;;9.00;99.90;;;;;;6264200;22;20489;-89
2021/05/15 01:34:10;;;;;;;3.80;1.70;;;9.00;99.90;;;;;;6265779;22;20167;-88
2021/05/15 01:36:42;;;;;;;1.93;1.80;;;9.00;99.90;;;;;;6266418;22;20168;-88
2021/05/15 01:39:09;;;;;;;2.13;1.80;;;9.00;99.90;;;;;;6268925;22;20159;-90
2021/05/15 01:41:43;;;;;;;2.00;1.90;;;9.00;99.90;;;;;;6268030;22;20438;-90
2021/05/15 01:44:10;;;;;;;1.60;1.50;;;9.00;99.90;;;;;;6267568;22;20395;-88
2021/05/15 01:46:36;;;;;;;1.70;1.60;;;8.90;99.90;;;;;;6268306;22;20439;-89
2021/05/15 01:49:03;;;;;;;1.70;1.60;;;8.90;99.90;;;;;;6267424;22;20453;-88
2021/05/15 01:51:29;;;;;;;2.70;1.70;;;8.80;99.90;;;;;;6267359;22;20402;-89
2021/05/15 01:53:55;;;;;;;2.33;1.60;;;8.70;99.90;;;;;;6267948;22;20747;-89
2021/05/15 01:56:24;;;;;;;1.40;1.30;;;8.70;99.90;;;;;;6268017;22;20552;-89
2021/05/15 01:58:51;;;;;;;1.73;1.23;;;8.70;99.90;;;;;;6267697;22;20731;-88
2021/05/15 02:01:19;;;;;;;1.67;1.40;;;8.80;99.90;;;;;;6261956;22;20423;-91
2021/05/15 02:03:45;;;;;;;3.77;1.37;;;8.90;99.90;;;;;;6266364;22;20521;-88
2021/05/15 02:06:11;;;;;;;1.63;1.30;;;8.90;99.90;;;;;;6266190;22;20398;-89
2021/05/15 02:11:18;;;;;;;1.20;1.10;;;9.00;99.90;;;;;;6270303;22;20158;-89
2021/05/15 02:13:49;;;;;;;1.40;1.27;;;9.00;99.90;;;;;;6267046;22;20715;-89
2021/05/15 02:16:18;;;;;;;1.87;1.40;;;8.90;99.90;;;;;;6265730;22;20394;-89
2021/05/15 02:18:47;;;;;;;1.80;1.70;;;8.80;99.90;;;;;;6265810;22;20682;-89
2021/05/15 02:21:15;;;;;;;1.80;1.70;;;8.80;99.90;;;;;;6258078;22;20404;-90
2021/05/15 02:23:42;;;;;;;4.80;1.60;;;8.80;99.90;;;;;;6266483;22;20384;-89
2021/05/15 02:26:08;;;;;;;1.80;1.27;;;8.80;99.90;;;;;;6266140;22;20449;-89
2021/05/15 02:28:34;;;;;;;2.23;1.40;;;8.70;99.90;;;;;;6266760;22;20776;-89
2021/05/15 02:31:00;;;;;;;1.30;1.20;;;8.60;99.90;;;;;;6265732;22;20170;-89
2021/05/15 02:33:25;;;;;;;1.97;1.80;;;8.60;99.90;;;;;;6266968;22;20178;-90
2021/05/15 02:35:53;;;;;;;1.73;1.33;;;8.60;99.90;;;;;;6264686;22;20404;-89
2021/05/15 02:38:21;;;;;;;1.43;1.33;;;8.60;99.90;;;;;;6240906;22;20402;-89
2021/05/15 02:40:47;;;;;;;1.93;1.43;;;8.60;99.90;;;;;;6267337;22;21177;-89
2021/05/15 02:43:14;;;;;;;3.83;1.97;;;8.60;99.90;;;;;;6266183;22;20823;-88
2021/05/15 02:45:40;;;;;;;2.53;1.90;;;8.50;99.90;;;;;;6266924;22;20610;-88
2021/05/15 02:48:06;;;;;;;3.20;2.40;;;8.50;99.90;;;;;;6265442;22;20484;-89
2021/05/15 02:50:32;;;;;;;5.83;2.90;;;8.50;99.90;;;;;;6264478;22;20413;-89
2021/05/15 02:52:57;;;;;;;5.87;3.40;;;8.30;99.90;;;;;;6267748;22;20403;-89
2021/05/15 02:55:27;;;;;;;2.37;2.17;;;8.30;99.90;;;;;;6265316;22;20390;-89
2021/05/15 02:57:56;;;;;;;2.40;1.93;;;8.30;99.90;;;;;;6266729;22;20236;-89
2021/05/15 03:00:28;;;;;;;2.60;2.40;;;8.30;99.90;;;;;;6267106;22;20902;-89
2021/05/15 03:02:55;;;;;;;2.43;2.23;;;8.20;99.90;;;;;;6266727;22;20444;-90
2021/05/15 03:05:23;;;;;;;5.83;2.47;;;8.10;99.90;;;;;;6266140;22;20381;-91
2021/05/15 03:07:50;;;;;;;2.43;2.23;;;8.00;99.90;;;;;;6267271;22;20404;-87
2021/05/15 03:10:18;;;;;;;2.40;2.13;;;7.90;99.90;;;;;;6267184;22;20408;-90
2021/05/15 03:12:44;;;;;;;2.73;2.63;;;7.80;99.90;;;;;;6266743;22;20393;-89
2021/05/15 03:15:12;;;;;;;2.40;2.30;;;7.90;99.90;;;;;;6265801;22;20472;-89
2021/05/15 03:17:43;;;;;;;2.33;2.23;;;7.80;99.90;;;;;;6267195;22;20548;-90
2021/05/15 03:20:28;;;;;;;3.30;2.47;;;7.90;99.90;;;;;;6267571;22;20386;-90
2021/05/15 03:22:56;;;;;;;2.37;2.27;;;8.00;99.90;;;;;;6266302;22;20442;-89
2021/05/15 03:25:22;;;;;;;2.60;2.40;;;8.10;99.90;;;;;;6266357;22;20291;-89
2021/05/15 03:27:51;;;;;;;3.77;2.57;;;8.10;99.90;;;;;;6266673;22;20915;-90
2021/05/15 03:30:25;;;;;;;2.20;2.10;;;8.10;99.90;;;;;;6267524;22;20169;-89
2021/05/15 03:32:51;;;;;;;2.37;2.27;;;8.20;99.90;;;;;;6267146;22;20397;-89
2021/05/15 03:35:22;;;;;;;1.87;1.73;;;8.20;99.90;;;;;;6266796;22;20405;-90
2021/05/15 03:38:09;;;;;;;1.90;1.80;;;8.20;99.90;;;;;;6267870;22;20169;-89
2021/05/15 03:40:35;;;;;;;1.67;1.57;;;8.20;99.90;;;;;;6267240;22;20706;-88
2021/05/15 03:43:02;;;;;;;1.80;1.70;;;8.10;99.90;;;;;;6266157;22;20447;-88
2021/05/15 03:45:28;;;;;;;2.40;2.00;;;8.10;99.90;;;;;;6267192;22;20398;-88
2021/05/15 03:47:53;;;;;;;2.20;1.40;;;8.10;99.90;;;;;;6267392;22;20406;-88
2021/05/15 03:50:22;;;;;;;1.57;1.30;;;8.10;99.90;;;;;;6267385;22;20598;-90
2021/05/15 03:52:57;;;;;;;1.37;1.30;;;8.10;99.90;;;;;;6264923;22;20159;-88
2021/05/15 03:55:26;;;;;;;1.50;1.40;;;8.10;99.90;;;;;;6266750;22;20469;-89
2021/05/15 03:57:52;;;;;;;1.57;1.47;;;8.10;99.90;;;;;;6266776;22;20445;-88
2021/05/15 04:00:18;;;;;;;1.70;1.60;;;8.10;99.90;;;;;;6266761;22;20865;-88
2021/05/15 04:02:46;;;;;;;1.67;1.57;;;8.10;99.90;;;;;;6266971;22;20327;-88
2021/05/15 04:05:17;;;;;;;2.30;1.50;;;8.10;99.90;;;;;;6267888;22;20414;-88
2021/05/15 04:07:43;;;;;;;1.70;1.60;;;8.20;99.90;;;;;;6266763;22;20892;-88
2021/05/15 04:10:09;;;;;;;1.93;1.70;;;8.20;99.90;;;;;;6267238;22;20246;-88
2021/05/15 04:12:36;;;;;;;1.47;1.37;;;8.20;99.90;;;;;;6266320;22;20157;-89
2021/05/15 04:15:06;;;;;;;1.40;1.30;;;8.20;99.90;;;;;;6267001;22;20775;-88
2021/05/15 04:17:32;;;;;;;2.37;1.60;;;8.20;99.90;;;;;;6265667;22;20392;-88
2021/05/15 04:19:58;;;;;;;2.50;2.30;;;8.30;99.90;;;;;;6266051;22;20403;-89
2021/05/15 04:22:24;;;;;;;3.40;3.10;;;8.40;99.90;;;;;;6265171;22;20498;-89
2021/05/15 04:24:50;;;;;;;3.10;2.90;;;8.50;99.90;;;;;;6265857;22;20876;-89
2021/05/15 04:27:16;;;;;;;3.60;3.40;;;8.60;99.90;;;;;;6266253;22;20711;-89
2021/05/15 04:29:44;;;;;;;2.07;1.90;;;8.70;99.90;;;;;;6266676;22;20210;-89
2021/05/15 04:32:10;;;;;;;1.70;1.60;;;8.80;99.90;;;;;;6266249;22;20928;-88
2021/05/15 04:34:36;;;;;;;1.87;1.77;;;8.80;99.90;;;;;;6265526;22;20387;-88
2021/05/15 04:37:02;;;;;;;1.47;1.37;;;8.80;99.90;;;;;;6266046;22;20414;-88
2021/05/15 04:39:28;;;;;;;1.30;1.20;;;8.80;99.90;;;;;;6266298;22;20913;-89
2021/05/15 04:44:32;;;;;;;2.70;1.10;;;8.80;99.90;;;;;;6267592;22;20409;-89
2021/05/15 04:47:06;;;;;;;1.30;1.10;;;8.80;99.90;;;;;;6266465;22;20719;-89
2021/05/15 04:49:32;;;;;;;1.40;1.30;;;8.90;99.90;;;;;;6265456;22;20394;-88
2021/05/15 04:51:57;;;;;;;1.80;1.70;;;8.90;99.90;;;;;;6239863;22;20412;-88
2021/05/15 04:54:24;;;;;;;3.33;1.73;;;9.00;99.90;;;;;;6265827;22;20485;-89
2021/05/15 04:56:50;;;;;;;1.40;1.30;;;9.10;99.90;;;;;;6266148;22;20171;-89
2021/05/15 04:59:21;;;;;;;2.63;2.00;;;9.10;99.90;;;;;;6239567;22;20492;-89
2021/05/15 05:01:46;;;;;;;4.77;1.73;;;9.20;99.90;;;;;;6263869;22;20450;-89
2021/05/15 05:04:14;;;;;;;3.23;1.43;;;9.50;99.90;;;;;;6263218;22;20872;-89
2021/05/15 05:06:39;;;;;;;2.20;1.93;;;9.50;99.90;;;;;;6265400;22;20181;-89
2021/05/15 05:09:09;;;;;;;1.47;1.37;;;9.50;99.90;;;;;;6264070;22;20874;-88
2021/05/15 05:11:36;;;;;;;1.60;1.50;;;9.50;99.90;;;;;;6238745;22;20173;-89
2021/05/15 05:14:02;;;;;;;1.17;1.17;;;9.70;99.90;;;;;;6267149;22;20392;-89
2021/05/15 05:16:29;;;;;;;0.93;0.93;;;9.80;99.90;;;;;;6265695;22;20450;-89
2021/05/15 05:21:34;;;;;;;1.40;1.20;;;9.90;99.90;;;;;;6267356;22;20422;-90
2021/05/15 05:24:00;;;;;;;1.43;1.33;;;10.10;99.90;;;;;;6262855;22;20925;-89
2021/05/15 05:26:26;;;;;;;2.40;1.50;;;10.20;99.90;;;;;;6265053;22;20396;-89
2021/05/15 05:28:51;;;;;;;1.13;1.13;;;10.20;99.90;;;;;;6265051;22;20610;-88
2021/05/15 05:31:19;;;;;;;1.57;1.20;;;10.20;99.90;;;;;;6263805;22;20164;-89
2021/05/15 05:33:46;;;;;;;1.60;1.50;;;10.20;99.90;;;;;;6264048;22;20164;-88
2021/05/15 05:36:14;;;;;;;3.80;1.47;;;10.20;99.90;;;;;;6240497;22;20720;-90
2021/05/15 05:38:40;;;;;;;1.47;1.37;;;10.20;99.90;;;;;;6265641;22;20874;-89
2021/05/15 05:41:06;;;;;;;1.53;1.40;;;10.30;99.90;;;;;;6265054;22;20405;-88
2021/05/15 05:43:32;;;;;;;1.47;1.37;;;10.40;99.90;;;;;;6264923;22;20203;-89
2021/05/15 05:46:07;;;;;;;1.50;1.40;;;10.50;99.90;;;;;;6264661;22;20732;-93
2021/05/15 05:48:33;;;;;;;1.77;1.43;;;10.50;99.90;;;;;;6265866;22;20245;-86
2021/05/15 05:50:59;;;;;;;3.40;1.80;;;10.50;99.90;;;;;;6265316;22;20419;-86
2021/05/15 05:53:25;;;;;;;3.20;1.53;;;10.70;99.90;;;;;;6265279;22;20188;-88
2021/05/15 05:56:20;;;;;;;1.57;1.47;;;10.80;99.90;;;;;;6265302;22;20169;-88
2021/05/15 05:58:46;;;;;;;4.70;1.83;;;10.60;99.90;;;;;;6264719;22;20477;-89
2021/05/15 06:01:13;;;;;;;3.10;1.47;;;10.50;99.90;;;;;;6265658;22;20426;-88
2021/05/15 06:03:40;;;;;;;6.07;1.50;;;10.60;99.90;;;;;;6263147;22;20436;-89
2021/05/15 06:06:06;;;;;;;2.80;1.40;;;10.60;99.90;;;;;;6265540;22;20737;-89
2021/05/15 06:08:31;;;;;;;1.10;1.10;;;10.60;99.90;;;;;;6266146;22;20412;-89
2021/05/15 06:10:58;;;;;;;1.27;1.17;;;10.70;99.90;;;;;;6265182;22;20746;-88
2021/05/15 06:13:25;;;;;;;2.40;1.37;;;10.80;99.90;;;;;;6267667;22;20163;-88
2021/05/15 06:15:53;;;;;;;4.23;2.07;;;10.90;99.90;;;;;;6264799;22;20393;-89
2021/05/15 06:18:19;;;;;;;5.83;1.60;;;11.10;99.90;;;;;;6264851;22;20754;-88
2021/05/15 06:20:46;;;;;;;3.07;1.50;;;11.20;99.90;;;;;;6267091;22;20392;-88
2021/05/15 06:23:12;;;;;;;3.07;1.70;;;11.40;99.90;;;;;;6265959;22;20432;-89
2021/05/15 06:25:38;;;;;;;1.27;1.17;;;11.40;99.90;;;;;;6265889;22;20693;-89
2021/05/15 06:28:06;;;;;;;1.70;1.00;;;11.60;99.90;;;;;;6266225;22;20423;-89
2021/05/15 06:30:41;;;;;;;1.37;1.00;;;11.80;99.90;;;;;;6267485;22;21109;-89
2021/05/15 06:33:07;;;;;;;1.03;0.97;;;12.00;99.90;;;;;;6268443;22;20401;-89
2021/05/15 06:36:09;;;;;;;1.33;1.07;;;12.20;99.90;;;;;;6267024;22;20763;-90
2021/05/15 06:38:35;;;;;;;0.97;0.97;;;12.30;99.90;;;;;;6266082;22;20170;-90
2021/05/15 06:41:00;;;;;;;0.90;0.90;;;12.40;99.90;;;;;;6266157;22;20454;-89
2021/05/15 06:43:26;;;;;;;0.90;0.90;;;12.70;99.90;;;;;;6267303;22;20206;-89
2021/05/15 06:45:52;;;;;;;0.90;0.90;;;12.50;99.90;;;;;;6265556;22;20166;-89
2021/05/15 06:48:28;;;;;;;1.33;0.80;;;12.40;99.90;;;;;;6266436;22;20172;-88
2021/05/15 06:50:53;;;;;;;0.90;0.90;;;12.40;99.90;;;;;;6267019;22;20933;-89
2021/05/15 06:53:19;;;;;;;1.50;0.77;;;12.50;99.90;;;;;;6266293;22;20432;-88
2021/05/15 06:55:45;;;;;;;1.93;1.20;;;12.70;99.90;;;;;;6265764;22;20593;-89
2021/05/15 06:58:10;;;;;;;1.40;0.80;;;12.70;99.90;;;;;;6265658;22;20173;-88
2021/05/15 07:00:36;;;;;;;1.33;0.93;;;12.90;99.90;;;;;;6265919;22;20194;-89
2021/05/15 07:03:02;;;;;;;0.80;0.70;;;12.90;99.90;;;;;;6265310;22;20193;-89
2021/05/15 07:05:27;;;;;;;0.70;0.70;;;13.10;99.90;;;;;;6266226;22;20165;-89
2021/05/15 07:07:53;;;;;;;1.10;0.97;;;13.10;99.90;;;;;;6266534;22;20173;-90
2021/05/15 07:10:19;;;;;;;1.33;0.80;;;13.10;99.90;;;;;;6267208;22;20157;-89
2021/05/15 07:12:53;;;;;;;2.50;0.83;;;13.20;99.90;;;;;;6266958;22;20396;-89
2021/05/15 07:15:20;;;;;;;0.60;0.60;;;13.30;99.90;;;;;;6240933;22;20193;-89
2021/05/15 07:17:46;;;;;;;0.60;0.60;;;13.20;99.90;;;;;;6266662;22;20719;-87
2021/05/15 07:20:12;;;;;;;1.00;0.90;;;13.40;99.90;;;;;;6265972;22;20481;-86
2021/05/15 07:22:39;;;;;;;0.90;0.90;;;13.60;99.90;;;;;;6266176;22;20486;-86
2021/05/15 07:25:05;;;;;;;1.00;0.90;;;13.50;99.90;;;;;;6264962;22;20875;-87
2021/05/15 07:27:31;;;;;;;0.70;0.70;;;13.50;99.90;;;;;;6265401;22;20420;-87
2021/05/15 07:29:57;;;;;;;1.13;0.90;;;13.50;99.90;;;;;;6264989;22;20447;-85
2021/05/15 07:32:24;;;;;;;1.40;1.00;;;13.60;99.90;;;;;;6266144;22;20389;-88
2021/05/15 07:34:50;;;;;;;0.70;0.70;;;13.70;99.90;;;;;;6264935;22;20181;-88
2021/05/15 07:37:16;;;;;;;1.10;0.90;;;13.70;99.90;;;;;;6263769;22;20847;-88
2021/05/15 07:39:42;;;;;;;0.73;0.73;;;13.60;99.90;;;;;;6263726;22;20389;-88
2021/05/15 07:42:08;;;;;;;1.13;0.70;;;13.80;99.90;;;;;;6264649;22;20237;-88
2021/05/15 07:44:34;;;;;;;0.90;0.53;;;13.90;99.90;;;;;;6266269;22;20720;-88
2021/05/15 07:47:00;;;;;;;1.03;0.83;;;14.00;99.90;;;;;;6267072;22;21869;-87
2021/05/15 07:49:26;;;;;;;1.50;0.70;;;14.20;99.90;;;;;;6266107;22;20158;-89
2021/05/15 07:51:59;;;;;;;1.67;0.97;;;14.30;99.20;;;;;;6268938;22;20389;-87
2021/05/15 07:54:26;;;;;;;1.33;0.80;;;14.30;98.90;;;;;;6265696;22;20770;-87
2021/05/15 07:56:57;;;;;;;1.40;1.20;;;14.20;99.40;;;;;;6266546;22;20256;-88
2021/05/15 07:59:23;;;;;;;0.97;0.87;;;14.00;99.20;;;;;;6266952;22;20393;-88
2021/05/15 08:01:49;;;;;;;1.33;1.00;;;13.80;99.60;;;;;;6265879;22;20463;-90
2021/05/15 08:04:15;;;;;;;1.87;0.90;;;13.90;99.90;;;;;;6265816;22;20162;-88
2021/05/15 08:06:41;;;;;;;0.70;0.70;;;14.00;99.60;;;;;;6266581;22;20497;-85
2021/05/15 08:09:14;;;;;;;0.77;0.77;;;14.00;99.40;;;;;;6265965;22;20484;-87
2021/05/15 08:11:40;;;;;;;1.50;0.70;;;14.20;99.90;;;;;;6265049;22;20397;-88
2021/05/15 08:14:06;;;;;;;1.43;0.90;;;14.60;99.00;;;;;;6266862;22;20381;-89
2021/05/15 08:16:34;;;;;;;1.97;0.80;;;14.60;99.60;;;;;;6266852;22;20162;-88
2021/05/15 08:19:00;;;;;;;3.17;1.00;;;14.70;98.70;;;;;;6266671;22;20400;-87
2021/05/15 08:21:28;;;;;;;1.30;1.03;;;14.50;98.80;;;;;;6266779;22;20408;-88
2021/05/15 08:23:54;;;;;;;1.00;0.70;;;14.60;98.90;;;;;;6265890;22;20733;-87
2021/05/15 08:26:20;;;;;;;2.10;1.20;;;14.70;99.10;;;;;;6266667;22;20397;-94
2021/05/15 08:28:49;;;;;;;1.70;1.00;;;14.70;99.60;;;;;;6266605;22;20178;-89
2021/05/15 08:31:16;;;;;;;1.23;1.13;;;14.60;99.10;;;;;;6267389;22;20484;-90
2021/05/15 08:33:41;;;;;;;0.90;0.90;;;14.70;99.20;;;;;;6266853;22;20400;-90
2021/05/15 08:36:10;;;;;;;0.90;0.90;;;14.50;98.40;;;;;;6264570;22;20717;-91
2021/05/15 08:38:35;;;;;;;1.30;0.80;;;14.30;98.20;;;;;;6262880;22;20154;-91
2021/05/15 08:41:01;;;;;;;0.90;0.90;;;14.30;98.90;;;;;;6267076;22;20397;-90
2021/05/15 08:43:28;;;;;;;1.20;0.80;;;14.40;99.00;;;;;;6266933;22;20190;-92
2021/05/15 08:46:03;;;;;;;1.83;0.90;;;14.40;98.10;;;;;;6267284;22;20220;-90
2021/05/15 08:48:31;;;;;;;2.37;1.00;;;14.50;98.10;;;;;;6267388;22;20397;-89
2021/05/15 08:51:01;;;;;;;3.87;0.90;;;14.40;97.80;;;;;;6266277;22;20397;-89
2021/05/15 08:53:27;;;;;;;0.97;0.70;;;14.50;98.10;;;;;;6252548;22;20470;-89
2021/05/15 08:55:53;;;;;;;1.07;0.93;;;14.80;98.80;;;;;;6256719;22;20900;-90
2021/05/15 08:58:20;;;;;;;18.40;16.73;;;14.90;98.30;;;;;;6259082;22;20208;-91
2021/05/15 09:00:47;;;;;;;1.53;1.43;;;15.10;97.90;;;;;;6257877;22;20393;-90
2021/05/15 09:03:16;;;;;;;2.10;1.20;;;15.50;97.60;;;;;;6257929;22;20440;-88
2021/05/15 09:05:44;;;;;;;2.40;1.10;;;15.60;97.50;;;;;;6257888;22;20397;-89
2021/05/15 09:08:10;;;;;;;2.00;1.80;;;15.80;97.40;;;;;;6259189;22;20405;-90
2021/05/15 09:10:42;;;;;;;1.30;1.20;;;15.90;96.50;;;;;;6260180;22;20454;-89
2021/05/15 09:13:15;;;;;;;0.83;0.83;;;16.00;95.50;;;;;;6259861;22;20408;-89
2021/05/15 09:15:54;;;;;;;5.23;2.13;;;15.70;95.40;;;;;;6258513;22;20400;-90
2021/05/15 09:18:23;;;;;;;1.00;1.00;;;15.90;95.70;;;;;;6259691;22;20481;-89
2021/05/15 09:20:51;;;;;;;1.50;1.40;;;16.10;96.00;;;;;;6260113;22;20511;-89
2021/05/15 09:23:19;;;;;;;0.87;0.87;;;16.20;96.10;;;;;;6258953;22;20444;-93
2021/05/15 09:26:12;;;;;;;1.03;0.93;;;16.20;94.80;;;;;;6258483;22;20761;-93
2021/05/15 09:28:45;;;;;;;2.27;0.90;;;15.80;94.80;;;;;;6259227;22;20781;-90
2021/05/15 09:31:27;;;;;;;2.70;1.40;;;16.20;94.50;;;;;;6258127;22;20401;-88
2021/05/15 09:34:05;;;;;;;1.07;1.07;;;16.40;95.00;;;;;;6258822;22;20476;-88
2021/05/15 09:36:46;;;;;;;2.20;2.00;;;16.30;94.80;;;;;;6259049;22;20392;-88
2021/05/15 09:39:15;;;;;;;3.50;3.20;;;15.80;95.10;;;;;;6259057;22;20404;-93
2021/05/15 09:41:48;;;;;;;1.70;1.60;;;15.70;95.00;;;;;;6258633;22;20744;-89
2021/05/15 09:44:20;;;;;;;1.30;1.20;;;15.80;94.80;;;;;;6259445;22;20401;-89
2021/05/15 09:46:47;;;;;;;1.43;1.00;;;16.00;94.60;;;;;;6258577;22;20411;-90
2021/05/15 09:49:15;;;;;;;2.77;2.07;;;16.20;93.40;;;;;;6258814;22;20423;-90
2021/05/15 09:51:53;;;;;;;2.10;2.00;;;16.40;93.60;;;;;;6258755;22;20391;-90
2021/05/15 09:54:29;;;;;;;2.53;1.70;;;16.50;93.20;;;;;;6259242;22;20749;-89
2021/05/15 09:56:58;;;;;;;1.90;1.13;;;16.80;93.70;;;;;;6261174;22;20388;-89
2021/05/15 09:59:44;;;;;;;1.13;0.90;;;17.00;92.60;;;;;;6261093;22;20876;-88
2021/05/15 10:02:13;;;;;;;1.70;1.10;;;17.30;91.80;;;;;;6261016;22;20503;-89
2021/05/15 10:04:43;;;;;;;2.50;1.57;;;17.00;90.90;;;;;;6261983;22;20472;-90
2021/05/15 10:07:15;;;;;;;3.27;2.00;;;17.40;92.80;;;;;;6261328;22;20409;-89
2021/05/15 10:09:41;;;;;;;1.60;1.50;;;17.20;90.30;;;;;;6260501;22;20426;-89
2021/05/15 10:12:07;;;;;;;1.07;0.97;;;17.40;91.00;;;;;;6260652;22;20741;-87
2021/05/15 10:14:33;;;;;;;4.20;3.80;;;17.10;90.50;;;;;;6261365;22;20212;-88
2021/05/15 10:17:00;;;;;;;3.40;2.40;;;16.90;91.80;;;;;;6260767;22;20681;-87
2021/05/15 10:19:28;;;;;;;4.67;3.73;;;16.90;91.50;;;;;;6261314;22;20454;-90
2021/05/15 10:21:57;;;;;;;2.83;2.30;;;16.60;91.40;;;;;;6260567;22;20483;-88
2021/05/15 10:24:27;;;;;;;2.07;1.80;;;16.60;91.30;;;;;;6261154;22;20544;-88
2021/05/15 10:27:07;;;;;;;4.10;2.43;;;16.50;91.50;;;;;;6261011;22;20400;-90
2021/05/15 10:29:53;;;;;;;1.63;1.53;;;16.70;91.20;;;;;;6260994;22;20412;-90
2021/05/15 10:32:22;;;;;;;2.80;1.80;;;17.20;90.50;;;;;;6260613;22;20416;-90
2021/05/15 10:34:56;;;;;;;3.60;3.30;;;17.30;89.30;;;;;;6260110;22;20483;-88
2021/05/15 10:37:22;;;;;;;2.10;2.00;;;17.50;90.50;;;;;;6259790;22;20401;-87
2021/05/15 10:39:48;;;;;;;1.93;1.47;;;17.70;88.20;;;;;;6261140;22;20712;-93
2021/05/15 10:42:35;;;;;;;3.17;1.37;;;17.40;86.90;;;;;;6260749;22;20200;-91
2021/05/15 10:45:01;;;;;;;1.73;1.37;;;17.40;89.00;;;;;;6258756;22;20397;-89
2021/05/15 10:47:27;;;;;;;1.27;1.17;;;17.20;89.70;;;;;;6260469;22;20393;-90
2021/05/15 10:50:15;;;;;;;1.77;1.27;;;16.90;90.10;;;;;;6260021;22;20393;-89
2021/05/15 10:52:46;;;;;;;1.87;1.00;;;16.20;91.30;;;;;;6260227;22;20189;-88
2021/05/15 10:55:12;;;;;;;1.17;1.07;;;15.70;91.50;;;;;;6260855;22;20463;-88
2021/05/15 10:57:37;;;;;;;1.33;0.80;;;15.50;92.90;;;;;;6261147;22;20397;-90
2021/05/15 11:00:06;;;;;;;2.83;0.87;;;15.50;92.90;;;;;;6260703;22;20284;-91
2021/05/15 11:02:32;;;;;;;3.03;1.20;;;15.60;92.80;;;;;;6259908;22;20309;-91
2021/05/15 11:05:01;;;;;;;1.30;1.10;;;15.80;92.90;;;;;;6257027;22;20400;-90
2021/05/15 11:07:35;;;;;;;1.33;1.23;;;15.60;92.30;;;;;;6261171;22;20389;-92
2021/05/15 11:10:09;;;;;;;1.47;1.10;;;16.10;91.30;;;;;;6260875;22;20397;-91
2021/05/15 11:12:43;;;;;;;1.03;1.00;;;16.20;90.60;;;;;;6260901;22;20380;-92
2021/05/15 11:15:21;;;;;;;1.00;1.00;;;15.90;91.20;;;;;;6260081;22;20754;-91
2021/05/15 11:18:00;;;;;;;1.73;0.87;;;15.50;91.90;;;;;;6258919;22;20889;-92
2021/05/15 11:20:25;;;;;;;3.83;1.50;;;15.00;92.60;;;;;;6260884;22;20961;-90
2021/05/15 11:22:54;;;;;;;2.77;1.37;;;15.00;92.90;;;;;;6252238;22;20536;-89
2021/05/15 11:25:28;;;;;;;1.27;1.17;;;14.80;94.70;;;;;;6258606;22;20196;-91
2021/05/15 11:28:00;;;;;;;5.37;3.03;;;14.60;95.80;;;;;;6259103;22;20825;-87
2021/05/15 11:30:31;;;;;;;3.20;2.50;;;13.80;99.90;;;;;;6258772;22;20404;-90
2021/05/15 11:33:04;;;;;;;8.50;5.60;;;13.10;99.90;;;;;;6259601;22;20488;-90
2021/05/15 11:35:35;;;;;;;3.53;2.30;;;13.00;99.90;;;;;;6258550;22;20411;-88
2021/05/15 11:38:13;;;;;;;2.90;1.10;;;13.30;99.90;;;;;;6258881;22;20401;-87
2021/05/15 11:41:03;;;;;;;1.30;1.20;;;13.60;99.90;;;;;;6259475;22;20400;-89
2021/05/15 11:43:33;;;;;;;4.50;1.30;;;14.20;99.90;;;;;;6258975;22;20440;-89
2021/05/15 11:46:03;;;;;;;3.03;1.00;;;14.90;99.90;;;;;;6258728;22;20515;-89
2021/05/15 11:48:38;;;;;;;2.80;2.17;;;15.50;99.90;;;;;;6258798;22;20389;-89
2021/05/15 11:51:14;;;;;;;3.20;1.50;;;16.00;99.90;;;;;;6255030;22;20739;-88
2021/05/15 11:53:43;;;;;;;2.97;2.67;;;16.10;99.90;;;;;;6258714;22;20411;-89
2021/05/15 11:56:14;;;;;;;2.23;2.07;;;15.90;99.90;;;;;;6258367;22;20871;-87
2021/05/15 11:58:48;;;;;;;1.33;1.23;;;15.90;99.90;;;;;;6258336;22;20405;-87
2021/05/15 12:01:20;;;;;;;3.27;1.23;;;16.10;99.90;;;;;;6258986;22;20483;-87
2021/05/15 12:03:46;;;;;;;1.90;1.10;;;16.10;99.90;;;;;;6259656;22;20436;-89
2021/05/15 12:06:14;;;;;;;1.90;1.17;;;16.00;99.90;;;;;;6257376;22;20393;-87
2021/05/15 12:08:41;;;;;;;1.87;1.00;;;15.80;99.70;;;;;;6257354;22;20405;-88
2021/05/15 12:11:07;;;;;;;2.50;1.10;;;15.60;99.90;;;;;;6257980;22;20740;-90
2021/05/15 12:13:33;;;;;;;1.23;1.20;;;15.80;99.90;;;;;;6253562;22;20440;-90
2021/05/15 12:16:02;;;;;;;1.50;0.87;;;15.90;99.90;;;;;;6259573;22;20166;-90
2021/05/15 12:18:29;;;;;;;1.30;0.90;;;16.10;99.90;;;;;;6256864;22;20166;-91
2021/05/15 12:20:55;;;;;;;1.73;1.20;;;16.20;99.90;;;;;;6259781;22;20853;-91
2021/05/15 12:23:26;;;;;;;2.57;1.40;;;16.30;98.60;;;;;;6258388;22;20492;-92
2021/05/15 12:25:58;;;;;;;0.93;0.83;;;16.60;98.40;;;;;;6258982;22;20943;-92
2021/05/15 12:28:40;;;;;;;2.43;1.40;;;16.70;99.50;;;;;;6259585;22;20726;-90
2021/05/15 12:31:18;;;;;;;8.63;2.23;;;16.70;98.00;;;;;;6259817;22;20458;-92
2021/05/15 12:33:44;;;;;;;3.07;1.50;;;16.50;99.90;;;;;;6259867;22;20404;-92
2021/05/15 12:36:09;;;;;;;1.20;1.10;;;16.40;99.90;;;;;;6259510;22;20401;-90
2021/05/15 12:38:48;;;;;;;1.80;1.20;;;16.10;99.90;;;;;;6260337;22;20533;-92
2021/05/15 12:41:22;;;;;;;1.27;1.17;;;16.30;99.90;;;;;;6260280;22;20225;-91
2021/05/15 12:44:01;;;;;;;2.40;1.27;;;16.20;98.70;;;;;;6257903;22;20451;-89
2021/05/15 12:46:30;;;;;;;2.60;1.33;;;16.60;99.10;;;;;;6260856;22;20397;-87
2021/05/15 12:49:01;;;;;;;1.43;1.27;;;16.60;98.60;;;;;;6260780;22;20412;-91
2021/05/15 12:51:34;;;;;;;2.37;2.17;;;16.40;98.70;;;;;;6260745;22;20393;-92
2021/05/15 12:54:21;;;;;;;2.10;1.80;;;16.40;99.70;;;;;;6260094;22;20450;-91
2021/05/15 12:56:55;;;;;;;11.10;10.10;;;16.60;97.50;;;;;;6256696;22;20715;-93
2021/05/15 12:59:27;;;;;;;17.20;5.43;;;16.80;97.30;;;;;;6259011;22;20399;-93
2021/05/15 13:01:53;;;;;;;20.47;4.27;;;16.90;97.00;;;;;;6254258;22;20444;-92
2021/05/15 13:04:25;;;;;;;3.20;2.07;;;17.00;97.30;;;;;;6259289;22;20802;-91
2021/05/15 13:06:54;;;;;;;1.50;1.40;;;16.70;96.80;;;;;;6259214;22;20170;-91
2021/05/15 13:09:27;;;;;;;1.40;1.30;;;16.40;97.30;;;;;;6259156;22;20488;-90